Time;durP1;ratioP1;P1;durP2;ratioP2;P2;SDS_P1;SDS_P2;PMS_P1;PMS_P2;Temp;Humidity;BMP_temperature;BMP_pressure;BME280_temperature;BME280_humidity;BME280_pressure;Samples;Min_cycle;Max_cycle;Signal;HPM_P1;HPM_P2
2023/02/07 00:00:33;;;;;;;12.50;8.80;;;;;;;-1.30;88.88;103422.16;5092096;28;20291;-84
2023/02/07 00:03:00;;;;;;;11.00;7.93;;;;;;;-1.33;89.39;103430.81;5093015;28;20212;-82
2023/02/07 00:05:28;;;;;;;12.17;9.43;;;;;;;-1.35;88.77;103428.97;5092394;28;20212;-83
2023/02/07 00:07:55;;;;;;;12.53;9.07;;;;;;;-1.38;89.26;103423.66;5095141;28;20207;-84
2023/02/07 00:10:21;;;;;;;11.23;8.33;;;;;;;-1.41;88.98;103434.91;5084540;28;20232;-81
2023/02/07 00:12:48;;;;;;;12.80;8.37;;;;;;;-1.44;89.05;103434.84;5090381;28;20200;-82
2023/02/07 00:15:15;;;;;;;12.33;8.30;;;;;;;-1.46;88.99;103428.66;5086823;28;20231;-84
2023/02/07 00:17:43;;;;;;;15.00;9.50;;;;;;;-1.48;89.38;103418.16;5092790;28;20216;-85
2023/02/07 00:20:11;;;;;;;13.37;8.83;;;;;;;-1.52;89.30;103410.19;5092223;28;20307;-83
2023/02/07 00:22:39;;;;;;;11.50;8.70;;;;;;;-1.54;89.27;103414.47;5092409;28;20200;-84
2023/02/07 00:25:06;;;;;;;13.73;8.73;;;;;;;-1.58;89.45;103405.63;5093021;28;20200;-84
2023/02/07 00:27:33;;;;;;;14.30;9.93;;;;;;;-1.60;89.63;103406.44;5092118;28;20208;-83
2023/02/07 00:29:59;;;;;;;13.00;9.27;;;;;;;-1.61;89.30;103397.69;5088124;28;20230;-84
2023/02/07 00:32:30;;;;;;;13.60;9.10;;;;;;;-1.64;89.75;103410.69;5089324;28;20621;-83
2023/02/07 00:34:58;;;;;;;11.90;8.60;;;;;;;-1.65;90.03;103418.50;5085330;28;20196;-80
2023/02/07 00:37:24;;;;;;;13.97;9.57;;;;;;;-1.67;89.99;103413.22;5090088;28;20214;-84
2023/02/07 00:39:51;;;;;;;12.73;8.87;;;;;;;-1.69;90.26;103409.66;5088146;28;20226;-81
2023/02/07 00:42:18;;;;;;;13.43;9.23;;;;;;;-1.71;90.30;103400.00;5093794;28;20200;-83
2023/02/07 00:44:44;;;;;;;12.97;9.00;;;;;;;-1.77;90.11;103401.56;5091742;28;20199;-84
2023/02/07 00:47:11;;;;;;;10.93;8.50;;;;;;;-1.78;90.13;103404.13;5091994;28;20201;-83
2023/02/07 00:49:37;;;;;;;12.97;9.23;;;;;;;-1.79;90.14;103408.47;5089984;28;20228;-83
2023/02/07 00:52:05;;;;;;;13.40;9.10;;;;;;;-1.82;90.13;103411.00;5086885;28;20219;-82
2023/02/07 00:54:32;;;;;;;12.00;9.13;;;;;;;-1.84;90.40;103412.69;5091854;28;20204;-83
2023/02/07 00:56:58;;;;;;;14.90;9.73;;;;;;;-1.85;90.53;103410.03;5091538;28;20213;-82
2023/02/07 00:59:25;;;;;;;15.00;9.80;;;;;;;-1.86;90.59;103408.25;5089690;28;20675;-82
2023/02/07 01:01:51;;;;;;;11.70;8.97;;;;;;;-1.88;90.78;103405.59;5085922;28;20192;-82
2023/02/07 01:04:18;;;;;;;11.73;9.60;;;;;;;-1.90;91.01;103406.38;5088856;28;20203;-83
2023/02/07 01:06:44;;;;;;;12.83;9.53;;;;;;;-1.90;91.09;103408.97;5085153;28;20201;-84
2023/02/07 01:09:13;;;;;;;13.27;9.53;;;;;;;-1.93;90.96;103415.00;5082215;28;20200;-81
2023/02/07 01:11:39;;;;;;;17.07;9.77;;;;;;;-1.93;91.61;103411.50;5090839;28;20295;-82
2023/02/07 01:14:06;;;;;;;13.83;9.17;;;;;;;-1.95;91.50;103407.94;5092902;28;20196;-82
2023/02/07 01:16:34;;;;;;;13.87;9.23;;;;;;;-1.96;91.87;103412.28;5093248;28;20204;-83
2023/02/07 01:19:02;;;;;;;13.60;8.40;;;;;;;-1.98;91.29;103400.03;5087967;28;20205;-83
2023/02/07 01:21:29;;;;;;;14.17;9.37;;;;;;;-2.00;91.72;103405.19;5085180;28;20225;-82
2023/02/07 01:23:55;;;;;;;12.40;8.77;;;;;;;-2.02;91.96;103396.44;5092663;28;20207;-80
2023/02/07 01:26:24;;;;;;;13.30;9.13;;;;;;;-2.04;92.11;103399.81;5092963;28;20208;-83
2023/02/07 01:28:51;;;;;;;13.77;9.60;;;;;;;-2.05;91.88;103398.94;5089152;28;20286;-83
2023/02/07 01:31:17;;;;;;;12.97;8.60;;;;;;;-2.06;91.83;103398.88;5092730;28;20237;-82
2023/02/07 01:33:44;;;;;;;11.23;8.53;;;;;;;-2.10;91.94;103393.56;5090993;28;20208;-84
2023/02/07 01:36:13;;;;;;;13.47;9.83;;;;;;;-2.11;91.84;103383.06;5088287;28;20200;-81
2023/02/07 01:38:39;;;;;;;13.30;8.53;;;;;;;-2.15;91.86;103379.47;5089801;28;20209;-85
2023/02/07 01:41:06;;;;;;;11.73;8.83;;;;;;;-2.16;92.25;103371.59;5090695;28;20231;-84
2023/02/07 01:43:35;;;;;;;12.27;9.20;;;;;;;-2.18;92.20;103378.50;5088867;28;20196;-84
2023/02/07 01:46:01;;;;;;;12.70;9.47;;;;;;;-2.21;92.53;103368.84;5090210;28;20200;-83
2023/02/07 01:48:31;;;;;;;13.90;9.20;;;;;;;-2.23;92.69;103370.50;5090881;28;20215;-82
2023/02/07 01:51:02;;;;;;;15.87;9.30;;;;;;;-2.24;92.95;103376.56;5084563;28;20231;-82
2023/02/07 01:53:30;;;;;;;12.50;9.13;;;;;;;-2.25;92.88;103368.69;5089383;28;20211;-85
2023/02/07 01:56:00;;;;;;;13.50;9.33;;;;;;;-2.26;93.15;103370.41;5087751;28;20214;-84
2023/02/07 01:58:26;;;;;;;12.47;9.13;;;;;;;-2.26;92.72;103367.78;5091032;28;20212;-83
2023/02/07 02:00:55;;;;;;;14.13;9.03;;;;;;;-2.28;93.14;103365.97;5084329;28;20588;-84
2023/02/07 02:03:21;;;;;;;11.33;7.93;;;;;;;-2.29;93.37;103369.41;5089599;28;20649;-81
2023/02/07 02:05:54;;;;;;;13.37;9.80;;;;;;;-2.32;93.20;103370.19;5088504;28;20207;-82
2023/02/07 02:08:21;;;;;;;15.90;9.70;;;;;;;-2.35;92.80;103377.94;5090858;28;20238;-82
2023/02/07 02:11:02;;;;;;;13.30;8.97;;;;;;;-2.36;93.23;103376.16;5089673;28;20232;-83
2023/02/07 02:13:34;;;;;;;13.37;8.80;;;;;;;-2.39;93.13;103367.34;5086021;28;20208;-83
2023/02/07 02:16:10;;;;;;;14.20;9.93;;;;;;;-2.40;93.23;103360.34;5089215;28;20657;-82
2023/02/07 02:19:00;;;;;;;13.17;8.73;;;;;;;-2.41;92.97;103355.97;5091983;28;20288;-81
2023/02/07 02:22:13;;;;;;;13.93;9.10;;;;;;;-2.46;93.33;103342.75;5087640;28;20227;-82
2023/02/07 02:25:19;;;;;;;14.50;9.30;;;;;;;-2.48;93.35;103345.31;5090458;28;20246;-82
2023/02/07 02:28:11;;;;;;;12.77;8.93;;;;;;;-2.50;92.75;103349.59;5068814;28;20205;-83
2023/02/07 02:31:13;;;;;;;15.13;9.37;;;;;;;-2.50;93.50;103348.69;5090112;28;20224;-83
2023/02/07 02:33:49;;;;;;;14.90;9.40;;;;;;;-2.53;93.50;103356.47;5067421;28;20731;-84
2023/02/07 02:36:25;;;;;;;16.67;10.53;;;;;;;-2.54;93.34;103363.41;5095821;28;20200;-81
2023/02/07 02:39:00;;;;;;;14.83;9.27;;;;;;;-2.56;93.26;103358.97;5093360;28;20206;-82
2023/02/07 02:41:33;;;;;;;13.73;9.13;;;;;;;-2.58;93.05;103351.06;5090484;28;20220;-83
2023/02/07 02:44:04;;;;;;;16.63;9.40;;;;;;;-2.61;93.49;103350.06;5089624;28;20196;-81
2023/02/07 02:46:34;;;;;;;13.27;9.50;;;;;;;-2.65;92.98;103354.31;5091000;28;20199;-86
2023/02/07 02:49:03;;;;;;;16.70;10.70;;;;;;;-2.69;93.14;103351.56;5095084;28;20196;-83
2023/02/07 02:51:30;;;;;;;14.37;10.27;;;;;;;-2.72;93.27;103352.34;5093696;28;20224;-82
2023/02/07 02:53:59;;;;;;;16.37;10.90;;;;;;;-2.74;93.43;103345.28;5086277;28;20664;-83
2023/02/07 02:56:45;;;;;;;15.13;10.57;;;;;;;-2.77;93.31;103343.47;5094015;28;20211;-85
2023/02/07 02:59:40;;;;;;;14.47;11.07;;;;;;;-2.80;93.06;103338.13;5090122;28;20223;-84
2023/02/07 03:02:20;;;;;;;17.33;10.13;;;;;;;-2.82;93.16;103340.69;5088553;28;20679;-84
2023/02/07 03:05:14;;;;;;;14.13;9.23;;;;;;;-2.85;93.04;103331.84;5094319;28;20235;-84
2023/02/07 03:07:51;;;;;;;14.63;9.50;;;;;;;-2.88;92.91;103335.28;5096695;28;20206;-83
2023/02/07 03:10:29;;;;;;;14.03;9.90;;;;;;;-2.90;93.19;103329.13;5089369;28;20220;-84
2023/02/07 03:12:58;;;;;;;15.10;9.47;;;;;;;-2.92;93.08;103327.28;5089121;28;20784;-80
2023/02/07 03:15:32;;;;;;;17.33;10.33;;;;;;;-2.93;93.29;103334.22;5094267;28;20212;-84
2023/02/07 03:18:05;;;;;;;16.30;9.50;;;;;;;-2.95;92.83;103321.97;5082926;28;20200;-82
2023/02/07 03:20:37;;;;;;;14.90;9.90;;;;;;;-2.97;93.22;103328.84;5091975;28;20228;-84
2023/02/07 03:23:06;;;;;;;13.50;9.93;;;;;;;-2.99;93.14;103335.72;5092660;28;20550;-81
2023/02/07 03:25:33;;;;;;;17.00;10.33;;;;;;;-3.01;93.14;103326.94;5089860;28;20208;-86
2023/02/07 03:28:01;;;;;;;16.40;10.00;;;;;;;-3.03;92.91;103334.72;5092679;28;20201;-85
2023/02/07 03:30:33;;;;;;;14.67;9.80;;;;;;;-3.07;92.93;103330.25;5094708;28;20228;-86
2023/02/07 03:33:08;;;;;;;12.50;9.37;;;;;;;-3.08;92.97;103341.50;5092726;28;20584;-87
2023/02/07 03:35:40;;;;;;;18.40;10.60;;;;;;;-3.12;93.19;103343.94;5087206;28;20208;-84
2023/02/07 03:38:11;;;;;;;15.03;9.27;;;;;;;-3.14;93.19;103351.72;5092976;28;20211;-85
2023/02/07 03:40:41;;;;;;;15.87;10.07;;;;;;;-3.16;92.83;103340.34;5093295;28;20240;-84
2023/02/07 03:43:12;;;;;;;15.00;10.03;;;;;;;-3.19;93.17;103342.81;5089117;28;20217;-85
2023/02/07 03:45:39;;;;;;;16.17;10.10;;;;;;;-3.22;92.86;103338.38;5088885;28;20567;-83
2023/02/07 03:48:06;;;;;;;16.80;10.57;;;;;;;-3.25;92.71;103327.00;5091665;28;20425;-83
2023/02/07 03:50:32;;;;;;;16.00;10.33;;;;;;;-3.26;92.99;103330.44;5085664;28;20220;-84
2023/02/07 03:53:00;;;;;;;18.17;10.43;;;;;;;-3.29;92.77;103330.31;5091641;28;20216;-82
2023/02/07 03:55:27;;;;;;;16.17;11.13;;;;;;;-3.32;92.76;103323.25;5088801;28;20208;-84
2023/02/07 03:57:54;;;;;;;16.77;10.47;;;;;;;-3.33;92.88;103328.41;5085428;28;20262;-83
2023/02/07 04:00:20;;;;;;;16.30;10.60;;;;;;;-3.35;93.15;103325.75;5088238;28;20249;-84
2023/02/07 04:02:47;;;;;;;16.40;10.80;;;;;;;-3.35;93.08;103325.75;5085053;28;20204;-83
2023/02/07 04:05:13;;;;;;;16.53;9.63;;;;;;;-3.36;92.94;103320.47;5088189;28;20200;-83
2023/02/07 04:07:40;;;;;;;16.10;9.87;;;;;;;-3.38;93.21;103325.63;5091209;28;20204;-82
2023/02/07 04:10:10;;;;;;;15.97;10.67;;;;;;;-3.40;93.39;103336.88;5091564;28;20739;-83
2023/02/07 04:12:36;;;;;;;18.77;10.43;;;;;;;-3.41;93.10;103335.97;5073625;28;20227;-83
2023/02/07 04:15:04;;;;;;;16.07;10.17;;;;;;;-3.43;93.11;103341.97;5091454;28;20196;-83
2023/02/07 04:17:31;;;;;;;16.40;10.13;;;;;;;-3.44;92.94;103346.28;5089969;28;20210;-85
2023/02/07 04:20:00;;;;;;;17.93;10.53;;;;;;;-3.45;93.01;103348.81;5085961;28;20307;-86
2023/02/07 04:22:26;;;;;;;16.07;10.20;;;;;;;-3.48;93.28;103338.28;5083360;28;20213;-84
2023/02/07 04:24:53;;;;;;;16.90;10.33;;;;;;;-3.49;93.30;103342.59;5086233;28;20208;-84
2023/02/07 04:27:21;;;;;;;17.93;11.23;;;;;;;-3.52;93.29;103347.69;5085636;28;20192;-82
2023/02/07 04:29:47;;;;;;;17.10;10.93;;;;;;;-3.55;92.79;103348.47;5088004;28;20232;-84
2023/02/07 04:32:14;;;;;;;15.00;10.03;;;;;;;-3.57;93.34;103354.44;5085013;28;20708;-83
2023/02/07 04:34:40;;;;;;;16.57;9.23;;;;;;;-3.59;93.09;103359.63;5085531;28;20211;-84
2023/02/07 04:37:07;;;;;;;17.20;10.70;;;;;;;-3.62;93.17;103358.63;5082432;28;20197;-84
2023/02/07 04:39:34;;;;;;;18.17;11.20;;;;;;;-3.63;92.95;103355.13;5083728;28;20208;-83
2023/02/07 04:42:00;;;;;;;18.40;11.27;;;;;;;-3.65;93.10;103353.28;5089749;28;20204;-83
2023/02/07 04:44:28;;;;;;;16.97;10.67;;;;;;;-3.68;92.93;103348.84;5082218;28;20212;-83
2023/02/07 04:46:54;;;;;;;16.80;10.90;;;;;;;-3.69;93.17;103354.00;5082835;28;20226;-82
2023/02/07 04:49:21;;;;;;;17.37;10.83;;;;;;;-3.71;93.09;103348.72;5084699;28;20210;-83
2023/02/07 04:51:47;;;;;;;20.07;11.57;;;;;;;-3.72;93.06;103351.25;5080180;28;20254;-84
2023/02/07 04:54:14;;;;;;;20.03;12.23;;;;;;;-3.75;92.97;103353.75;5085087;28;20207;-84
2023/02/07 04:56:40;;;;;;;18.93;11.63;;;;;;;-3.78;92.99;103346.72;5088534;28;20214;-83
2023/02/07 04:59:07;;;;;;;20.13;12.53;;;;;;;-3.80;93.12;103355.31;5083442;28;20666;-82
2023/02/07 05:01:35;;;;;;;23.17;12.67;;;;;;;-3.81;93.14;103353.53;5085249;28;20228;-83
2023/02/07 05:04:01;;;;;;;22.43;14.20;;;;;;;-3.84;92.91;103343.88;5082644;28;20574;-83
2023/02/07 05:06:28;;;;;;;25.60;15.20;;;;;;;-3.84;93.14;103354.28;5080538;28;20212;-84
2023/02/07 05:08:54;;;;;;;29.10;14.90;;;;;;;-3.87;93.23;103355.06;5080084;28;20204;-83
2023/02/07 05:11:21;;;;;;;22.20;13.73;;;;;;;-3.88;93.02;103350.69;5079882;28;20240;-83
2023/02/07 05:13:47;;;;;;;22.00;12.53;;;;;;;-3.91;92.88;103347.06;5082896;28;20346;-81
2023/02/07 05:16:14;;;;;;;17.37;10.60;;;;;;;-3.93;92.94;103349.59;5087569;28;20568;-81
2023/02/07 05:18:41;;;;;;;20.87;11.40;;;;;;;-3.96;93.25;103349.50;5091715;28;20219;-83
2023/02/07 05:21:10;;;;;;;20.00;11.33;;;;;;;-3.98;93.18;103350.28;5085272;28;20227;-82
2023/02/07 05:23:36;;;;;;;17.47;10.47;;;;;;;-4.01;93.01;103350.16;5087958;28;20197;-83
2023/02/07 05:26:03;;;;;;;14.80;9.77;;;;;;;-4.03;93.17;103347.47;5082287;28;20767;-82
2023/02/07 05:28:29;;;;;;;17.20;9.13;;;;;;;-4.05;92.91;103354.34;5087838;28;20204;-83
2023/02/07 05:30:56;;;;;;;16.27;9.17;;;;;;;-4.08;92.92;103354.22;5090139;28;20224;-83
2023/02/07 05:33:22;;;;;;;19.37;10.67;;;;;;;-4.10;92.99;103347.16;5085012;28;20224;-82
2023/02/07 05:35:49;;;;;;;14.37;9.17;;;;;;;-4.12;93.18;103344.50;5093021;28;20210;-85
2023/02/07 05:38:19;;;;;;;17.53;9.97;;;;;;;-4.15;93.34;103347.00;5089899;28;20204;-84
2023/02/07 05:40:46;;;;;;;15.53;9.60;;;;;;;-4.15;93.00;103352.22;5088230;28;20221;-82
2023/02/07 05:43:13;;;;;;;20.40;11.20;;;;;;;-4.16;93.43;103344.34;5085215;28;20232;-85
2023/02/07 05:45:40;;;;;;;18.70;11.50;;;;;;;-4.18;93.44;103348.59;5081157;28;20211;-82
2023/02/07 05:48:09;;;;;;;20.93;11.40;;;;;;;-4.18;93.36;103348.59;5085783;28;20204;-83
2023/02/07 05:50:35;;;;;;;19.63;10.40;;;;;;;-4.22;93.39;103351.06;5084775;28;20704;-82
2023/02/07 05:53:03;;;;;;;20.97;11.77;;;;;;;-4.24;93.44;103352.72;5087629;28;20220;-83
2023/02/07 05:55:30;;;;;;;22.97;12.27;;;;;;;-4.25;93.20;103345.72;5082856;28;20204;-82
2023/02/07 05:57:57;;;;;;;25.33;11.60;;;;;;;-4.25;93.53;103355.25;5088312;28;20240;-83
2023/02/07 06:00:23;;;;;;;20.10;12.03;;;;;;;-4.25;93.92;103353.53;5084883;28;20238;-82
2023/02/07 06:02:52;;;;;;;20.30;12.20;;;;;;;-4.24;93.81;103365.72;5083433;28;20204;-82
2023/02/07 06:05:20;;;;;;;19.23;11.63;;;;;;;-4.24;94.04;103365.72;5080560;28;20291;-82
2023/02/07 06:07:47;;;;;;;22.23;12.17;;;;;;;-4.25;94.27;103357.84;5081900;28;20597;-82
2023/02/07 06:10:15;;;;;;;21.40;11.37;;;;;;;-4.26;94.13;103361.28;5083391;28;20993;-83
2023/02/07 06:12:42;;;;;;;19.93;11.10;;;;;;;-4.27;94.34;103368.19;5090530;28;20231;-84
2023/02/07 06:15:09;;;;;;;26.93;14.27;;;;;;;-4.29;94.35;103364.63;5088420;28;20291;-83
2023/02/07 06:17:36;;;;;;;25.77;13.97;;;;;;;-4.31;94.14;103370.63;5088558;28;20274;-84
2023/02/07 06:20:02;;;;;;;21.47;12.10;;;;;;;-4.32;94.18;103369.75;5087511;28;20264;-85
2023/02/07 06:22:29;;;;;;;19.77;11.33;;;;;;;-4.32;94.15;103368.84;5088267;28;20216;-81
2023/02/07 06:24:55;;;;;;;19.37;10.97;;;;;;;-4.33;94.28;103367.97;5088156;28;20215;-83
2023/02/07 06:27:23;;;;;;;16.03;10.27;;;;;;;-4.34;94.18;103367.91;5089426;28;20200;-84
2023/02/07 06:29:50;;;;;;;17.83;10.53;;;;;;;-4.40;94.17;103365.94;5094941;28;20675;-82
2023/02/07 06:32:16;;;;;;;13.73;10.27;;;;;;;-4.42;94.38;103371.88;5087045;28;20254;-82
2023/02/07 06:34:43;;;;;;;17.80;10.43;;;;;;;-4.43;94.11;103375.31;5094012;28;20205;-83
2023/02/07 06:37:09;;;;;;;17.63;11.00;;;;;;;-4.46;94.63;103365.66;5093719;28;20260;-84
2023/02/07 06:39:36;;;;;;;16.40;10.07;;;;;;;-4.47;94.76;103360.38;5096249;28;20200;-83
2023/02/07 06:42:03;;;;;;;19.77;10.90;;;;;;;-4.46;94.61;103373.47;5100526;28;20207;-82
2023/02/07 06:44:32;;;;;;;20.10;12.43;;;;;;;-4.46;94.84;103365.66;5100622;28;20215;-85
2023/02/07 06:46:59;;;;;;;21.50;12.03;;;;;;;-4.44;95.15;103381.34;5094460;28;20196;-83
2023/02/07 06:49:26;;;;;;;17.30;10.57;;;;;;;-4.42;95.27;103380.56;5106521;28;20208;-84
2023/02/07 06:51:52;;;;;;;19.27;11.63;;;;;;;-4.40;95.41;103383.25;5091521;28;20204;-83
2023/02/07 06:54:19;;;;;;;19.67;11.37;;;;;;;-4.39;95.38;103383.31;5089158;28;20592;-83
2023/02/07 06:56:45;;;;;;;21.77;11.77;;;;;;;-4.37;95.67;103391.19;5086380;28;20213;-82
2023/02/07 06:59:12;;;;;;;22.40;12.97;;;;;;;-4.37;95.82;103388.56;5097043;28;20215;-83
2023/02/07 07:01:40;;;;;;;21.70;12.50;;;;;;;-4.37;95.84;103378.19;5084467;28;20239;-82
2023/02/07 07:04:06;;;;;;;17.83;11.17;;;;;;;-4.35;96.00;103386.94;5090130;28;20760;-83
2023/02/07 07:06:33;;;;;;;21.10;11.37;;;;;;;-4.36;95.67;103377.34;5106809;28;20213;-82
2023/02/07 07:08:59;;;;;;;21.13;11.67;;;;;;;-4.33;96.06;103386.19;5086423;28;20196;-83
2023/02/07 07:11:26;;;;;;;18.97;11.27;;;;;;;-4.33;95.75;103382.69;5085240;28;20256;-83
2023/02/07 07:13:52;;;;;;;19.67;12.13;;;;;;;-4.33;95.82;103393.97;5085252;28;20223;-83
2023/02/07 07:16:19;;;;;;;19.70;12.23;;;;;;;-4.34;96.14;103392.19;5096761;28;20199;-84
2023/02/07 07:18:49;;;;;;;23.10;12.47;;;;;;;-4.33;96.14;103387.88;5087457;28;20296;-83
2023/02/07 07:21:16;;;;;;;19.33;11.90;;;;;;;-4.33;95.90;103399.19;5081051;28;20228;-83
2023/02/07 07:23:42;;;;;;;19.80;12.07;;;;;;;-4.31;95.85;103405.34;5090741;28;20682;-82
2023/02/07 07:26:08;;;;;;;21.13;11.97;;;;;;;-4.33;95.92;103409.59;5085999;28;20291;-82
2023/02/07 07:28:35;;;;;;;23.60;12.63;;;;;;;-4.37;95.79;103409.38;5087695;28;20200;-82
2023/02/07 07:31:06;;;;;;;18.47;11.57;;;;;;;-4.39;95.59;103401.53;5087774;28;20226;-82
2023/02/07 07:33:36;;;;;;;21.30;11.70;;;;;;;-4.41;95.77;103412.69;5081813;28;20223;-84
2023/02/07 07:36:04;;;;;;;24.87;13.67;;;;;;;-4.41;95.94;103410.97;5084808;28;20830;-83
2023/02/07 07:38:32;;;;;;;21.83;12.60;;;;;;;-4.40;96.21;103407.53;5089613;28;20593;-82
2023/02/07 07:40:59;;;;;;;23.07;13.17;;;;;;;-4.38;96.03;103408.50;5082666;28;20226;-83
2023/02/07 07:43:26;;;;;;;21.47;13.83;;;;;;;-4.35;96.29;103403.44;5082795;28;20227;-83
2023/02/07 07:45:53;;;;;;;25.90;14.07;;;;;;;-4.31;96.15;103407.06;5083889;28;20211;-85
2023/02/07 07:48:24;;;;;;;20.70;13.20;;;;;;;-4.29;96.31;103411.47;5083755;28;20204;-85
2023/02/07 07:50:52;;;;;;;21.17;12.63;;;;;;;-4.27;96.50;103420.22;5084315;28;20232;-84
2023/02/07 07:53:20;;;;;;;24.00;12.70;;;;;;;-4.24;96.62;103415.16;5088345;28;20307;-84
2023/02/07 07:55:50;;;;;;;20.17;12.97;;;;;;;-4.20;96.89;103411.88;5084042;28;20201;-83
2023/02/07 07:58:18;;;;;;;25.23;14.03;;;;;;;-4.14;97.19;103415.56;5086095;28;20220;-84
2023/02/07 08:00:44;;;;;;;22.10;12.90;;;;;;;-4.12;97.15;103414.75;5087278;28;20250;-81
2023/02/07 08:03:11;;;;;;;26.63;14.27;;;;;;;-4.06;97.49;103424.53;5083296;28;20203;-84
2023/02/07 08:05:38;;;;;;;28.13;14.43;;;;;;;-4.04;97.60;103413.38;5080781;28;20294;-83
2023/02/07 08:08:05;;;;;;;35.33;15.23;;;;;;;-3.99;97.69;103418.78;5085210;28;20577;-81
2023/02/07 08:10:33;;;;;;;27.73;14.20;;;;;;;-3.96;97.81;103419.78;5082971;28;20242;-83
2023/02/07 08:12:59;;;;;;;27.47;14.93;;;;;;;-3.91;97.96;103419.94;5086273;28;20227;-83
2023/02/07 08:15:26;;;;;;;23.10;13.47;;;;;;;-3.87;98.18;103416.66;5085372;28;20866;-83
2023/02/07 08:17:52;;;;;;;27.90;13.73;;;;;;;-3.79;98.44;103422.19;5076323;28;20197;-84
2023/02/07 08:20:19;;;;;;;27.53;15.37;;;;;;;-3.74;98.43;103416.31;5081269;28;20221;-83
2023/02/07 08:22:45;;;;;;;24.87;13.90;;;;;;;-3.66;98.76;103417.50;5083186;28;20592;-83
2023/02/07 08:25:12;;;;;;;27.90;15.77;;;;;;;-3.60;98.77;103419.47;5085050;28;20208;-82
2023/02/07 08:27:40;;;;;;;26.57;14.90;;;;;;;-3.52;99.30;103423.25;5086560;28;20216;-83
2023/02/07 08:30:09;;;;;;;27.40;15.43;;;;;;;-3.43;99.50;103420.13;5084446;28;20279;-83
2023/02/07 08:32:40;;;;;;;25.93;15.77;;;;;;;-3.34;100.00;103412.63;5089115;28;20212;-82
2023/02/07 08:35:07;;;;;;;27.07;15.33;;;;;;;-3.25;99.85;103410.38;5090724;28;20883;-85
2023/02/07 08:37:34;;;;;;;27.87;14.97;;;;;;;-3.17;99.96;103407.22;5086282;28;20664;-82
2023/02/07 08:40:04;;;;;;;27.67;15.47;;;;;;;-3.08;100.00;103395.38;5085889;28;20228;-84
2023/02/07 08:42:31;;;;;;;26.73;14.23;;;;;;;-2.99;100.00;103396.56;5087821;28;20200;-81
2023/02/07 08:44:59;;;;;;;25.07;15.13;;;;;;;-2.90;100.00;103404.75;5076565;28;20286;-82
2023/02/07 08:47:25;;;;;;;25.80;15.70;;;;;;;-2.81;100.00;103394.63;5084928;28;20201;-83
2023/02/07 08:49:52;;;;;;;24.57;14.53;;;;;;;-2.70;100.00;103392.41;5084325;28;20219;-84
2023/02/07 08:52:21;;;;;;;24.83;15.10;;;;;;;-2.61;100.00;103390.09;5081636;28;20212;-83
2023/02/07 08:54:48;;;;;;;21.40;14.93;;;;;;;-2.51;100.00;103393.94;5090082;28;20728;-83
2023/02/07 08:57:16;;;;;;;22.43;14.90;;;;;;;-2.40;100.00;103392.56;5087398;28;20828;-83
2023/02/07 08:59:45;;;;;;;26.13;15.17;;;;;;;-2.31;100.00;103392.84;5086228;28;20213;-83
2023/02/07 09:02:13;;;;;;;22.40;14.43;;;;;;;-2.21;100.00;103394.94;5083983;28;20207;-83
2023/02/07 09:04:41;;;;;;;22.33;14.60;;;;;;;-2.12;100.00;103389.13;5085107;28;20228;-83
2023/02/07 09:07:11;;;;;;;18.70;13.10;;;;;;;-2.01;100.00;103389.47;5085450;28;20242;-83
2023/02/07 09:09:41;;;;;;;23.97;15.17;;;;;;;-1.90;100.00;103402.03;5084441;28;20208;-83
2023/02/07 09:12:08;;;;;;;20.60;13.27;;;;;;;-1.80;99.50;103403.22;5101109;28;20242;-82
2023/02/07 09:14:38;;;;;;;22.10;14.50;;;;;;;-1.70;99.67;103404.38;5099683;28;20576;-83
2023/02/07 09:17:05;;;;;;;24.57;14.13;;;;;;;-1.64;99.00;103400.25;5090502;28;20566;-83
2023/02/07 09:19:36;;;;;;;20.73;13.77;;;;;;;-1.55;98.73;103408.34;5088633;28;20219;-82
2023/02/07 09:22:03;;;;;;;20.97;14.83;;;;;;;-1.47;98.33;103409.47;5096642;28;20973;-83
2023/02/07 09:24:30;;;;;;;20.50;13.60;;;;;;;-1.38;98.23;103414.09;5085514;28;20209;-82
2023/02/07 09:26:56;;;;;;;28.63;14.70;;;;;;;-1.30;97.89;103411.72;5085489;28;20197;-83
2023/02/07 09:29:23;;;;;;;21.93;14.40;;;;;;;-1.24;97.48;103406.63;5087938;28;20698;-83
2023/02/07 09:31:49;;;;;;;19.77;13.57;;;;;;;-1.20;97.03;103401.56;5095785;28;20235;-83
2023/02/07 09:34:16;;;;;;;20.87;13.70;;;;;;;-1.14;96.39;103393.00;5089607;28;20220;-84
2023/02/07 09:36:44;;;;;;;19.63;14.03;;;;;;;-1.07;96.49;103395.81;5087490;28;20210;-83
2023/02/07 09:39:11;;;;;;;21.30;13.13;;;;;;;-0.99;96.09;103382.97;5092595;28;20212;-83
2023/02/07 09:41:48;;;;;;;20.83;13.93;;;;;;;-0.89;95.30;103391.94;5087742;28;20224;-83
2023/02/07 09:44:19;;;;;;;19.47;13.17;;;;;;;-0.84;94.82;103386.00;5081845;28;20196;-83
2023/02/07 09:46:50;;;;;;;15.93;11.77;;;;;;;-0.81;94.36;103391.31;5086604;28;20218;-82
2023/02/07 09:49:33;;;;;;;21.20;12.53;;;;;;;-0.74;93.41;103398.50;5081145;28;20869;-84
2023/02/07 09:52:03;;;;;;;19.83;13.33;;;;;;;-0.70;92.58;103387.25;5080959;28;20199;-82
2023/02/07 09:54:37;;;;;;;18.93;12.73;;;;;;;-0.61;92.25;103389.25;5084080;28;20226;-82
2023/02/07 09:57:08;;;;;;;19.80;13.03;;;;;;;-0.59;91.49;103391.91;5076742;28;20212;-81
2023/02/07 09:59:45;;;;;;;19.07;13.13;;;;;;;-0.51;90.85;103399.09;5082674;28;20216;-84
2023/02/07 10:02:24;;;;;;;18.40;13.50;;;;;;;-0.44;89.79;103384.44;5082961;28;20224;-83
2023/02/07 10:04:55;;;;;;;20.63;12.70;;;;;;;-0.35;89.33;103393.41;5092046;28;20672;-83
2023/02/07 10:07:23;;;;;;;19.90;12.83;;;;;;;-0.25;88.81;103391.91;5081569;28;20249;-83
2023/02/07 10:09:50;;;;;;;17.77;11.23;;;;;;;-0.16;88.06;103399.97;5084912;28;20249;-83
2023/02/07 10:12:34;;;;;;;18.83;12.23;;;;;;;-0.08;87.17;103393.22;5083099;28;20201;-84
2023/02/07 10:15:29;;;;;;;21.13;13.00;;;;;;;-0.01;86.33;103387.28;5084040;28;20228;-82
2023/02/07 10:18:19;;;;;;;19.20;11.40;;;;;;;0.09;85.85;103387.50;5079811;28;20204;-83
2023/02/07 10:20:54;;;;;;;20.80;12.50;;;;;;;0.18;84.81;103382.47;5085352;28;20244;-83
2023/02/07 10:23:40;;;;;;;15.47;10.97;;;;;;;0.26;83.75;103379.16;5083838;28;20208;-85
2023/02/07 10:26:16;;;;;;;17.93;11.97;;;;;;;0.35;83.20;103381.13;5083784;28;20220;-85
2023/02/07 10:29:14;;;;;;;18.67;11.60;;;;;;;0.45;82.65;103383.06;5084833;28;20226;-85
2023/02/07 10:31:46;;;;;;;16.33;11.23;;;;;;;0.52;81.45;103392.84;5075829;28;20225;-83
2023/02/07 10:34:17;;;;;;;16.93;11.33;;;;;;;0.61;80.54;103389.53;5077232;28;20217;-83
2023/02/07 10:36:47;;;;;;;15.93;11.47;;;;;;;0.66;79.52;103387.91;5079392;28;20216;-83
2023/02/07 10:39:23;;;;;;;19.37;11.93;;;;;;;0.71;78.63;103382.75;5081188;28;20205;-83
2023/02/07 10:41:51;;;;;;;15.17;11.03;;;;;;;0.78;77.59;103387.25;5079661;28;20311;-83
2023/02/07 10:44:19;;;;;;;15.43;10.53;;;;;;;0.80;76.68;103385.56;5079910;28;20310;-85
2023/02/07 10:46:58;;;;;;;14.30;10.63;;;;;;;0.82;75.94;103392.63;5082640;28;20205;-85
2023/02/07 10:49:27;;;;;;;15.13;10.77;;;;;;;0.87;75.01;103384.84;5079381;28;20204;-85
2023/02/07 10:51:57;;;;;;;15.90;10.80;;;;;;;0.94;74.58;103395.47;5080233;28;20283;-85
2023/02/07 10:54:25;;;;;;;15.03;10.50;;;;;;;1.01;73.75;103393.88;5083325;28;20224;-85
2023/02/07 10:56:54;;;;;;;16.73;10.23;;;;;;;1.06;73.30;103397.47;5085610;28;20232;-83
2023/02/07 10:59:44;;;;;;;16.43;11.10;;;;;;;1.09;72.44;103391.38;5079932;28;20299;-83
2023/02/07 11:02:47;;;;;;;16.93;11.20;;;;;;;1.13;72.71;103391.47;5080258;28;20207;-85
2023/02/07 11:05:28;;;;;;;16.10;11.00;;;;;;;1.24;72.89;103396.94;5067532;28;20196;-83
2023/02/07 11:08:00;;;;;;;15.17;10.73;;;;;;;1.28;72.18;103397.00;5082829;28;20200;-83
2023/02/07 11:10:32;;;;;;;15.70;10.93;;;;;;;1.32;71.77;103383.09;5086823;28;20236;-84
2023/02/07 11:13:00;;;;;;;15.90;11.23;;;;;;;1.35;71.70;103383.16;5081176;28;20227;-85
2023/02/07 11:15:34;;;;;;;15.77;11.03;;;;;;;1.41;71.13;103384.13;5085758;28;20234;-84
2023/02/07 11:18:02;;;;;;;16.67;10.67;;;;;;;1.43;71.63;103387.66;5083819;28;20216;-85
2023/02/07 11:20:32;;;;;;;17.43;11.20;;;;;;;1.46;71.55;103391.22;5092910;28;20232;-85
2023/02/07 11:22:59;;;;;;;12.57;10.27;;;;;;;1.48;70.43;103386.88;5089936;28;20209;-85